Tropical Cyclones
[Index]
Main Index Home Page Stock Weather Photos Extreme Storms Discussion Storm News and Storm Chasing Reports Tropical Cyclones / Hurricanes / Typhoons Weather Data and Links Wild Fires / Bushfires Weather Observation Techniques Weather Picture Catalogue Tornado Pictures and Reports Stock Video Footage and DVDs for sale
Season 1973-1974 Tropical Cyclone CECILY Track Map
Season 1973-1974 Summaries: [BoM-AU] [JTWC-AU] [JTWC-SIO] [JTWC-SPAC] [JTWC-SH]
<<- Previous TC | BoM 1973-1974 Season | Next TC ->>

click for intensity scale information  Lat/long Grid: Show Hide

 Date Labels: Show Hide

Bureau of Meteorology Tropical Cyclone Data

Name: CECILY
Number: 515 / 197374_05

11 Dec 1973 00:00 UTC to 19 Dec 1973 00:00 UTC

    date/time    lat    long    hPa   cat  kts
1973-12-11 00    9.9   100.1   1005                     
1973-12-11 03   10.0   100.0   1005                     
1973-12-11 06   10.1   100.0   1003                     
1973-12-11 09   10.2    99.9   1001                     
1973-12-11 12   10.3    99.8   1002                     
1973-12-11 15   10.4    99.7   1003                     
1973-12-11 18   10.5    99.6   1004                     
1973-12-11 21   10.6    99.5   1003                     
1973-12-12 00   10.6    99.5   1003                     
1973-12-12 03   10.7    99.4   1003                     
1973-12-12 06   10.9    99.4   1002                     
1973-12-12 09   11.0    99.5   1000                     
1973-12-12 12   11.2    99.5    998                     
1973-12-12 15   11.3    99.6    997                     
1973-12-12 18   11.4    99.6    996                     
1973-12-12 21   11.5    99.7    995    1                
1973-12-13 00   11.6    99.8    994    1                
1973-12-13 03   11.7    99.7    994    1                
1973-12-13 06   11.9    99.5    992    1                
1973-12-13 09   12.2    99.3    990    1                
1973-12-13 12   12.5    99.0    988    1                
1973-12-13 15   12.9    98.6    986    1                
1973-12-13 18   13.4    98.1    984    2                
1973-12-13 21   14.0    97.6    982    2                
1973-12-14 00   14.6    97.0    981    2                
1973-12-14 03   15.0    96.5    981    2                
1973-12-14 06   15.3    96.1    980    2                
1973-12-14 09   15.7    95.8    978    2                
1973-12-14 12   16.1    95.5    976    2                
1973-12-14 15   16.5    95.2    974    2                
1973-12-14 18   16.9    95.0    974    2                
1973-12-14 21   17.3    94.8    974    2                
1973-12-15 00   17.7    94.7    973    2                
1973-12-15 03   18.0    94.6    973    2                
1973-12-15 06   18.4    94.4    973    2                
1973-12-15 09   18.7    94.2    975    2                
1973-12-15 12   19.1    94.0    980    2                
1973-12-15 15   19.5    93.9    984    2                
1973-12-15 18   19.9    93.8    985    2                
1973-12-15 21   20.3    93.7    986    1                
1973-12-16 00   20.8    93.7    988    1                
1973-12-16 03   21.2    93.7    989    1                
1973-12-16 06   21.7    93.9    988    1                
1973-12-16 09   22.1    94.1    989    1                
1973-12-16 12   22.6    94.4    993    1                
1973-12-16 15   23.0    94.7    994    1                
1973-12-16 18   23.5    94.9    993    1                
1973-12-16 21   23.9    95.1    992    1                
1973-12-17 00   24.4    95.3    994    1                
1973-12-17 03   24.8    95.4    995    1                
1973-12-17 06   25.1    95.5    994    1                
1973-12-17 09   25.3    95.5    994    1                
1973-12-17 12   25.5    95.5    999                     
1973-12-17 15   25.7    95.5   1003                     
1973-12-17 18   25.9    95.5   1002                     
1973-12-17 21   26.1    95.5   1002                     
1973-12-18 00   26.4    95.5   1005                     
1973-12-18 03   26.8    95.4   1005                     
1973-12-18 06   27.2    95.2   1002                     
1973-12-18 09   27.6    94.9   1003                     
1973-12-18 12   28.0    94.6   1004                     
1973-12-18 15   28.3    94.0   1005                     
1973-12-18 18   28.5    93.2   1004                     
1973-12-18 21   28.7    92.4   1004                     
1973-12-19 00   28.8    91.5   1005                     
Winds are 10-min average.

Tropical cyclone tracks developed by Michael Bath using data from the Bureau of Meteorology and Google Maps.


[Australian Severe Weather index] [Copyright Notice] [Email Contacts] [Search This Site] [Privacy Policy]
Document: tropical_cyclone_cecily.htm Updated: 30 May 2013